Isle Au Haut, Maine
Current Conditions -  °F | °C
As of 9:15 AM on Thursday 30 Oct 2014 (Local Time) from KRKD Reporting Station
Clear Clear  
Wind Chill: 46°   Ceiling: Unl
Heat Index: 46°   Visibility: 10mi
Dew Point: 39°   Wind: 0mph
Humidity: 76%   Direction: NA
Pressure: 29.88"   Gusts: NA
Location:  44.07°N, 68.63°W
Report Text: KRKD 301315Z AUTO 00000KT 10SM CLR 08/04 A2988 RMK AO1
Loading
Personal Weather Stations






























Interactive Weather Map New forecast layout! Learn more

10-Day Weather Forecast

Advertisements
Track Severe Weather on mobile